sensor_id;sensor_type;location;lat;lon;timestamp;P1;durP1;ratioP1;P2;durP2;ratioP2
33836;SDS011;20140;49.356;8.812;2024-02-04T00:01:46;2.00;;;1.50;;
33836;SDS011;20140;49.356;8.812;2024-02-04T00:04:12;1.70;;;1.20;;
33836;SDS011;20140;49.356;8.812;2024-02-04T00:06:37;2.03;;;1.50;;
33836;SDS011;20140;49.356;8.812;2024-02-04T00:09:03;2.87;;;1.70;;
33836;SDS011;20140;49.356;8.812;2024-02-04T00:11:29;2.72;;;2.03;;
33836;SDS011;20140;49.356;8.812;2024-02-04T00:13:55;1.90;;;1.55;;
33836;SDS011;20140;49.356;8.812;2024-02-04T00:16:22;1.67;;;1.45;;
33836;SDS011;20140;49.356;8.812;2024-02-04T00:18:48;2.90;;;2.13;;
33836;SDS011;20140;49.356;8.812;2024-02-04T00:21:13;2.13;;;2.00;;
33836;SDS011;20140;49.356;8.812;2024-02-04T00:23:39;2.63;;;2.43;;
33836;SDS011;20140;49.356;8.812;2024-02-04T00:26:04;8.60;;;2.70;;
33836;SDS011;20140;49.356;8.812;2024-02-04T00:28:30;2.33;;;2.13;;
33836;SDS011;20140;49.356;8.812;2024-02-04T00:30:55;3.03;;;2.40;;
33836;SDS011;20140;49.356;8.812;2024-02-04T00:33:22;2.50;;;2.25;;
33836;SDS011;20140;49.356;8.812;2024-02-04T00:35:48;2.97;;;2.03;;
33836;SDS011;20140;49.356;8.812;2024-02-04T00:38:14;3.03;;;2.20;;
33836;SDS011;20140;49.356;8.812;2024-02-04T00:40:39;2.97;;;2.67;;
33836;SDS011;20140;49.356;8.812;2024-02-04T00:43:05;3.77;;;2.77;;
33836;SDS011;20140;49.356;8.812;2024-02-04T00:45:30;3.47;;;2.77;;
33836;SDS011;20140;49.356;8.812;2024-02-04T00:47:56;3.30;;;2.87;;
33836;SDS011;20140;49.356;8.812;2024-02-04T00:50:21;2.63;;;2.42;;
33836;SDS011;20140;49.356;8.812;2024-02-04T00:52:47;3.75;;;2.67;;
33836;SDS011;20140;49.356;8.812;2024-02-04T00:55:12;4.03;;;3.10;;
33836;SDS011;20140;49.356;8.812;2024-02-04T00:57:38;3.53;;;2.83;;
33836;SDS011;20140;49.356;8.812;2024-02-04T01:00:03;3.23;;;2.73;;
33836;SDS011;20140;49.356;8.812;2024-02-04T01:02:29;2.60;;;2.40;;
33836;SDS011;20140;49.356;8.812;2024-02-04T01:04:55;3.13;;;2.47;;
33836;SDS011;20140;49.356;8.812;2024-02-04T01:07:21;5.40;;;2.80;;
33836;SDS011;20140;49.356;8.812;2024-02-04T01:09:47;3.40;;;2.60;;
33836;SDS011;20140;49.356;8.812;2024-02-04T01:12:12;3.50;;;2.70;;
33836;SDS011;20140;49.356;8.812;2024-02-04T01:14:38;3.13;;;2.57;;
33836;SDS011;20140;49.356;8.812;2024-02-04T01:17:03;3.27;;;2.97;;
33836;SDS011;20140;49.356;8.812;2024-02-04T01:19:29;5.53;;;2.90;;
33836;SDS011;20140;49.356;8.812;2024-02-04T01:21:54;3.45;;;2.92;;
33836;SDS011;20140;49.356;8.812;2024-02-04T01:24:20;2.93;;;2.63;;
33836;SDS011;20140;49.356;8.812;2024-02-04T01:26:45;4.27;;;2.60;;
33836;SDS011;20140;49.356;8.812;2024-02-04T01:29:11;4.57;;;2.70;;
33836;SDS011;20140;49.356;8.812;2024-02-04T01:31:37;4.40;;;2.63;;
33836;SDS011;20140;49.356;8.812;2024-02-04T01:34:02;3.60;;;2.53;;
33836;SDS011;20140;49.356;8.812;2024-02-04T01:36:28;5.07;;;2.63;;
33836;SDS011;20140;49.356;8.812;2024-02-04T01:38:53;3.30;;;2.23;;
33836;SDS011;20140;49.356;8.812;2024-02-04T01:41:19;2.73;;;2.40;;
33836;SDS011;20140;49.356;8.812;2024-02-04T01:43:44;5.75;;;3.08;;
33836;SDS011;20140;49.356;8.812;2024-02-04T01:46:11;3.72;;;2.88;;
33836;SDS011;20140;49.356;8.812;2024-02-04T01:48:36;3.60;;;2.80;;
33836;SDS011;20140;49.356;8.812;2024-02-04T01:51:02;2.45;;;2.15;;
33836;SDS011;20140;49.356;8.812;2024-02-04T01:53:29;4.13;;;3.50;;
33836;SDS011;20140;49.356;8.812;2024-02-04T01:55:58;2.70;;;2.30;;
33836;SDS011;20140;49.356;8.812;2024-02-04T01:58:24;4.17;;;3.03;;
33836;SDS011;20140;49.356;8.812;2024-02-04T02:00:50;3.20;;;2.57;;
33836;SDS011;20140;49.356;8.812;2024-02-04T02:03:16;2.22;;;1.95;;
33836;SDS011;20140;49.356;8.812;2024-02-04T02:05:41;3.42;;;2.67;;
33836;SDS011;20140;49.356;8.812;2024-02-04T02:08:07;2.60;;;2.40;;
33836;SDS011;20140;49.356;8.812;2024-02-04T02:10:33;2.45;;;2.25;;
33836;SDS011;20140;49.356;8.812;2024-02-04T02:13:00;3.83;;;2.78;;
33836;SDS011;20140;49.356;8.812;2024-02-04T02:15:32;2.97;;;2.40;;
33836;SDS011;20140;49.356;8.812;2024-02-04T02:18:05;3.67;;;3.13;;
33836;SDS011;20140;49.356;8.812;2024-02-04T02:24:15;5.38;;;2.97;;
33836;SDS011;20140;49.356;8.812;2024-02-04T02:26:48;3.30;;;2.85;;
33836;SDS011;20140;49.356;8.812;2024-02-04T02:29:15;3.78;;;2.35;;
33836;SDS011;20140;49.356;8.812;2024-02-04T02:31:41;3.25;;;2.65;;
33836;SDS011;20140;49.356;8.812;2024-02-04T02:34:07;3.20;;;2.88;;
33836;SDS011;20140;49.356;8.812;2024-02-04T02:36:35;2.65;;;2.30;;
33836;SDS011;20140;49.356;8.812;2024-02-04T02:39:09;5.10;;;3.37;;
33836;SDS011;20140;49.356;8.812;2024-02-04T02:41:49;3.30;;;2.88;;
33836;SDS011;20140;49.356;8.812;2024-02-04T02:44:18;2.75;;;1.80;;
33836;SDS011;20140;49.356;8.812;2024-02-04T02:46:45;3.17;;;2.73;;
33836;SDS011;20140;49.356;8.812;2024-02-04T02:49:11;2.97;;;2.55;;
33836;SDS011;20140;49.356;8.812;2024-02-04T02:51:37;3.97;;;2.70;;
33836;SDS011;20140;49.356;8.812;2024-02-04T02:54:03;3.95;;;3.35;;
33836;SDS011;20140;49.356;8.812;2024-02-04T02:56:28;2.95;;;2.05;;
33836;SDS011;20140;49.356;8.812;2024-02-04T02:58:54;7.17;;;1.97;;
33836;SDS011;20140;49.356;8.812;2024-02-04T03:01:24;7.55;;;2.67;;
33836;SDS011;20140;49.356;8.812;2024-02-04T03:03:49;2.70;;;2.47;;
33836;SDS011;20140;49.356;8.812;2024-02-04T03:06:15;2.43;;;1.80;;
33836;SDS011;20140;49.356;8.812;2024-02-04T03:08:40;3.43;;;2.60;;
33836;SDS011;20140;49.356;8.812;2024-02-04T03:11:06;3.65;;;2.58;;
33836;SDS011;20140;49.356;8.812;2024-02-04T03:13:31;2.50;;;2.00;;
33836;SDS011;20140;49.356;8.812;2024-02-04T03:15:57;2.17;;;1.67;;
33836;SDS011;20140;49.356;8.812;2024-02-04T03:18:22;2.63;;;2.10;;
33836;SDS011;20140;49.356;8.812;2024-02-04T03:20:48;2.40;;;1.77;;
33836;SDS011;20140;49.356;8.812;2024-02-04T03:23:13;4.78;;;2.33;;
33836;SDS011;20140;49.356;8.812;2024-02-04T03:25:39;2.40;;;1.97;;
33836;SDS011;20140;49.356;8.812;2024-02-04T03:28:04;1.90;;;1.67;;
33836;SDS011;20140;49.356;8.812;2024-02-04T03:30:30;3.17;;;2.07;;
33836;SDS011;20140;49.356;8.812;2024-02-04T03:32:55;2.60;;;1.93;;
33836;SDS011;20140;49.356;8.812;2024-02-04T03:35:21;4.30;;;2.27;;
33836;SDS011;20140;49.356;8.812;2024-02-04T03:37:46;3.42;;;2.58;;
33836;SDS011;20140;49.356;8.812;2024-02-04T03:40:12;2.03;;;1.80;;
33836;SDS011;20140;49.356;8.812;2024-02-04T03:42:38;3.00;;;1.98;;
33836;SDS011;20140;49.356;8.812;2024-02-04T03:45:05;2.53;;;2.30;;
33836;SDS011;20140;49.356;8.812;2024-02-04T03:47:31;3.72;;;2.60;;
33836;SDS011;20140;49.356;8.812;2024-02-04T03:49:56;1.77;;;1.63;;
33836;SDS011;20140;49.356;8.812;2024-02-04T03:52:22;1.57;;;1.47;;
33836;SDS011;20140;49.356;8.812;2024-02-04T03:54:47;2.30;;;1.70;;
33836;SDS011;20140;49.356;8.812;2024-02-04T03:57:13;2.00;;;1.80;;
33836;SDS011;20140;49.356;8.812;2024-02-04T03:59:38;4.63;;;2.20;;
33836;SDS011;20140;49.356;8.812;2024-02-04T04:02:04;3.92;;;2.00;;
33836;SDS011;20140;49.356;8.812;2024-02-04T04:04:29;2.17;;;1.93;;
33836;SDS011;20140;49.356;8.812;2024-02-04T04:06:55;2.10;;;1.90;;
33836;SDS011;20140;49.356;8.812;2024-02-04T04:09:20;2.67;;;1.77;;
33836;SDS011;20140;49.356;8.812;2024-02-04T04:11:46;5.45;;;2.38;;
33836;SDS011;20140;49.356;8.812;2024-02-04T04:14:11;2.05;;;1.85;;
33836;SDS011;20140;49.356;8.812;2024-02-04T04:16:37;2.47;;;2.27;;
33836;SDS011;20140;49.356;8.812;2024-02-04T04:19:02;2.10;;;1.70;;
33836;SDS011;20140;49.356;8.812;2024-02-04T04:21:28;2.53;;;2.00;;
33836;SDS011;20140;49.356;8.812;2024-02-04T04:23:53;2.50;;;1.90;;
33836;SDS011;20140;49.356;8.812;2024-02-04T04:26:19;2.08;;;1.50;;
33836;SDS011;20140;49.356;8.812;2024-02-04T04:28:44;3.93;;;2.17;;
33836;SDS011;20140;49.356;8.812;2024-02-04T04:31:10;2.00;;;1.40;;
33836;SDS011;20140;49.356;8.812;2024-02-04T04:33:35;2.13;;;1.80;;
33836;SDS011;20140;49.356;8.812;2024-02-04T04:36:01;2.30;;;1.57;;
33836;SDS011;20140;49.356;8.812;2024-02-04T04:38:27;2.53;;;1.77;;
33836;SDS011;20140;49.356;8.812;2024-02-04T04:40:52;1.40;;;1.20;;
33836;SDS011;20140;49.356;8.812;2024-02-04T04:43:18;1.70;;;1.43;;
33836;SDS011;20140;49.356;8.812;2024-02-04T04:45:44;2.00;;;1.75;;
33836;SDS011;20140;49.356;8.812;2024-02-04T04:48:09;3.25;;;1.90;;
33836;SDS011;20140;49.356;8.812;2024-02-04T04:50:35;2.03;;;1.83;;
33836;SDS011;20140;49.356;8.812;2024-02-04T04:53:00;2.08;;;1.58;;
33836;SDS011;20140;49.356;8.812;2024-02-04T04:55:26;1.33;;;1.23;;
33836;SDS011;20140;49.356;8.812;2024-02-04T04:57:52;1.48;;;1.17;;
33836;SDS011;20140;49.356;8.812;2024-02-04T05:00:17;1.75;;;1.25;;
33836;SDS011;20140;49.356;8.812;2024-02-04T05:02:43;2.45;;;1.55;;
33836;SDS011;20140;49.356;8.812;2024-02-04T05:05:12;1.45;;;0.90;;
33836;SDS011;20140;49.356;8.812;2024-02-04T05:07:38;1.33;;;1.17;;
33836;SDS011;20140;49.356;8.812;2024-02-04T05:10:04;1.40;;;1.10;;
33836;SDS011;20140;49.356;8.812;2024-02-04T05:12:32;1.33;;;1.23;;
33836;SDS011;20140;49.356;8.812;2024-02-04T05:14:58;1.70;;;1.10;;
33836;SDS011;20140;49.356;8.812;2024-02-04T05:17:24;1.60;;;1.33;;
33836;SDS011;20140;49.356;8.812;2024-02-04T05:19:49;1.37;;;0.97;;
33836;SDS011;20140;49.356;8.812;2024-02-04T05:22:15;2.15;;;1.38;;
33836;SDS011;20140;49.356;8.812;2024-02-04T05:24:40;1.52;;;0.98;;
33836;SDS011;20140;49.356;8.812;2024-02-04T05:27:06;1.40;;;1.05;;
33836;SDS011;20140;49.356;8.812;2024-02-04T05:29:32;1.10;;;1.00;;
33836;SDS011;20140;49.356;8.812;2024-02-04T05:31:57;2.15;;;1.20;;
33836;SDS011;20140;49.356;8.812;2024-02-04T05:34:23;1.80;;;1.40;;
33836;SDS011;20140;49.356;8.812;2024-02-04T05:36:48;1.50;;;1.33;;
33836;SDS011;20140;49.356;8.812;2024-02-04T05:39:15;1.40;;;1.30;;
33836;SDS011;20140;49.356;8.812;2024-02-04T05:41:41;1.60;;;1.30;;
33836;SDS011;20140;49.356;8.812;2024-02-04T05:44:07;1.40;;;1.10;;
33836;SDS011;20140;49.356;8.812;2024-02-04T05:46:34;1.75;;;1.30;;
33836;SDS011;20140;49.356;8.812;2024-02-04T05:49:00;1.77;;;1.60;;
33836;SDS011;20140;49.356;8.812;2024-02-04T05:51:25;1.80;;;1.37;;
33836;SDS011;20140;49.356;8.812;2024-02-04T05:53:51;2.13;;;1.70;;
33836;SDS011;20140;49.356;8.812;2024-02-04T05:56:17;1.50;;;1.38;;
33836;SDS011;20140;49.356;8.812;2024-02-04T05:58:43;1.23;;;0.90;;
33836;SDS011;20140;49.356;8.812;2024-02-04T06:01:11;1.60;;;1.35;;
33836;SDS011;20140;49.356;8.812;2024-02-04T06:03:36;1.40;;;1.20;;
33836;SDS011;20140;49.356;8.812;2024-02-04T06:06:02;1.73;;;1.23;;
33836;SDS011;20140;49.356;8.812;2024-02-04T06:08:27;1.70;;;1.40;;
33836;SDS011;20140;49.356;8.812;2024-02-04T06:10:53;1.60;;;1.20;;
33836;SDS011;20140;49.356;8.812;2024-02-04T06:13:19;1.50;;;1.40;;
33836;SDS011;20140;49.356;8.812;2024-02-04T06:15:45;1.63;;;1.25;;
33836;SDS011;20140;49.356;8.812;2024-02-04T06:18:10;1.30;;;0.80;;
33836;SDS011;20140;49.356;8.812;2024-02-04T06:20:36;1.87;;;1.10;;
33836;SDS011;20140;49.356;8.812;2024-02-04T06:23:01;1.47;;;1.20;;
33836;SDS011;20140;49.356;8.812;2024-02-04T06:25:27;1.07;;;0.97;;
33836;SDS011;20140;49.356;8.812;2024-02-04T06:27:52;2.00;;;1.00;;
33836;SDS011;20140;49.356;8.812;2024-02-04T06:30:18;1.38;;;1.27;;
33836;SDS011;20140;49.356;8.812;2024-02-04T06:32:43;1.30;;;1.20;;
33836;SDS011;20140;49.356;8.812;2024-02-04T06:35:09;1.33;;;1.13;;
33836;SDS011;20140;49.356;8.812;2024-02-04T06:37:34;1.73;;;1.20;;
33836;SDS011;20140;49.356;8.812;2024-02-04T06:40:00;1.50;;;1.10;;
33836;SDS011;20140;49.356;8.812;2024-02-04T06:42:25;1.40;;;1.10;;
33836;SDS011;20140;49.356;8.812;2024-02-04T06:44:51;1.40;;;1.30;;
33836;SDS011;20140;49.356;8.812;2024-02-04T06:47:16;2.17;;;1.10;;
33836;SDS011;20140;49.356;8.812;2024-02-04T06:49:45;1.40;;;1.23;;
33836;SDS011;20140;49.356;8.812;2024-02-04T06:52:11;0.83;;;0.80;;
33836;SDS011;20140;49.356;8.812;2024-02-04T06:54:36;0.90;;;0.73;;
33836;SDS011;20140;49.356;8.812;2024-02-04T06:57:02;2.37;;;1.30;;
33836;SDS011;20140;49.356;8.812;2024-02-04T06:59:27;1.60;;;0.90;;
33836;SDS011;20140;49.356;8.812;2024-02-04T07:01:53;2.23;;;1.63;;
33836;SDS011;20140;49.356;8.812;2024-02-04T07:04:19;1.65;;;1.45;;
33836;SDS011;20140;49.356;8.812;2024-02-04T07:06:46;2.63;;;1.05;;
33836;SDS011;20140;49.356;8.812;2024-02-04T07:09:12;1.37;;;1.00;;
33836;SDS011;20140;49.356;8.812;2024-02-04T07:11:38;1.00;;;0.80;;
33836;SDS011;20140;49.356;8.812;2024-02-04T07:14:03;1.00;;;0.70;;
33836;SDS011;20140;49.356;8.812;2024-02-04T07:16:30;1.55;;;1.30;;
33836;SDS011;20140;49.356;8.812;2024-02-04T07:18:56;1.33;;;0.95;;
33836;SDS011;20140;49.356;8.812;2024-02-04T07:21:22;1.20;;;1.10;;
33836;SDS011;20140;49.356;8.812;2024-02-04T07:23:47;1.40;;;1.10;;
33836;SDS011;20140;49.356;8.812;2024-02-04T07:26:13;2.73;;;1.33;;
33836;SDS011;20140;49.356;8.812;2024-02-04T07:28:38;1.50;;;1.30;;
33836;SDS011;20140;49.356;8.812;2024-02-04T07:31:06;1.65;;;1.10;;
33836;SDS011;20140;49.356;8.812;2024-02-04T07:33:32;1.90;;;1.50;;
33836;SDS011;20140;49.356;8.812;2024-02-04T07:35:57;1.23;;;1.13;;
33836;SDS011;20140;49.356;8.812;2024-02-04T07:38:23;4.40;;;1.27;;
33836;SDS011;20140;49.356;8.812;2024-02-04T07:40:48;1.13;;;0.97;;
33836;SDS011;20140;49.356;8.812;2024-02-04T07:43:14;4.38;;;1.15;;
33836;SDS011;20140;49.356;8.812;2024-02-04T07:45:39;2.00;;;1.80;;
33836;SDS011;20140;49.356;8.812;2024-02-04T07:48:05;2.92;;;1.67;;
33836;SDS011;20140;49.356;8.812;2024-02-04T07:50:32;1.10;;;1.00;;
33836;SDS011;20140;49.356;8.812;2024-02-04T07:52:57;1.87;;;1.50;;
33836;SDS011;20140;49.356;8.812;2024-02-04T07:55:23;1.07;;;0.97;;
33836;SDS011;20140;49.356;8.812;2024-02-04T07:57:48;1.57;;;1.47;;
33836;SDS011;20140;49.356;8.812;2024-02-04T08:00:14;2.42;;;1.10;;
33836;SDS011;20140;49.356;8.812;2024-02-04T08:02:39;1.85;;;1.40;;
33836;SDS011;20140;49.356;8.812;2024-02-04T08:05:05;1.60;;;1.38;;
33836;SDS011;20140;49.356;8.812;2024-02-04T08:07:31;1.63;;;1.45;;
33836;SDS011;20140;49.356;8.812;2024-02-04T08:09:57;1.10;;;0.70;;
33836;SDS011;20140;49.356;8.812;2024-02-04T08:12:22;1.17;;;1.07;;
33836;SDS011;20140;49.356;8.812;2024-02-04T08:14:48;1.73;;;1.10;;
33836;SDS011;20140;49.356;8.812;2024-02-04T08:17:14;1.20;;;1.10;;
33836;SDS011;20140;49.356;8.812;2024-02-04T08:19:39;1.80;;;1.40;;
33836;SDS011;20140;49.356;8.812;2024-02-04T08:22:05;1.98;;;1.20;;
33836;SDS011;20140;49.356;8.812;2024-02-04T08:24:32;1.00;;;1.00;;
33836;SDS011;20140;49.356;8.812;2024-02-04T08:26:58;1.70;;;0.80;;
33836;SDS011;20140;49.356;8.812;2024-02-04T08:29:24;2.08;;;1.05;;
33836;SDS011;20140;49.356;8.812;2024-02-04T08:31:51;4.23;;;1.73;;
33836;SDS011;20140;49.356;8.812;2024-02-04T08:34:17;1.45;;;0.85;;
33836;SDS011;20140;49.356;8.812;2024-02-04T08:36:45;1.20;;;0.93;;
33836;SDS011;20140;49.356;8.812;2024-02-04T08:39:10;1.05;;;0.82;;
33836;SDS011;20140;49.356;8.812;2024-02-04T08:41:36;1.92;;;1.08;;
33836;SDS011;20140;49.356;8.812;2024-02-04T08:44:05;1.20;;;0.95;;
33836;SDS011;20140;49.356;8.812;2024-02-04T08:46:30;2.00;;;0.65;;
33836;SDS011;20140;49.356;8.812;2024-02-04T08:48:56;0.70;;;0.70;;
33836;SDS011;20140;49.356;8.812;2024-02-04T08:51:21;1.17;;;0.73;;
33836;SDS011;20140;49.356;8.812;2024-02-04T08:53:47;1.20;;;0.57;;
33836;SDS011;20140;49.356;8.812;2024-02-04T08:56:12;1.63;;;1.10;;
33836;SDS011;20140;49.356;8.812;2024-02-04T08:58:38;1.30;;;0.52;;
33836;SDS011;20140;49.356;8.812;2024-02-04T09:01:04;1.00;;;0.90;;
33836;SDS011;20140;49.356;8.812;2024-02-04T09:03:30;1.00;;;0.60;;
33836;SDS011;20140;49.356;8.812;2024-02-04T09:05:56;2.15;;;0.82;;
33836;SDS011;20140;49.356;8.812;2024-02-04T09:08:22;0.82;;;0.82;;
33836;SDS011;20140;49.356;8.812;2024-02-04T09:10:50;0.75;;;0.47;;
33836;SDS011;20140;49.356;8.812;2024-02-04T09:13:16;1.93;;;1.20;;
33836;SDS011;20140;49.356;8.812;2024-02-04T09:15:41;0.70;;;0.70;;
33836;SDS011;20140;49.356;8.812;2024-02-04T09:18:07;2.78;;;1.00;;
33836;SDS011;20140;49.356;8.812;2024-02-04T09:20:33;0.70;;;0.70;;
33836;SDS011;20140;49.356;8.812;2024-02-04T09:22:58;1.30;;;1.20;;
33836;SDS011;20140;49.356;8.812;2024-02-04T09:25:27;1.10;;;1.00;;
33836;SDS011;20140;49.356;8.812;2024-02-04T09:27:52;0.93;;;0.82;;
33836;SDS011;20140;49.356;8.812;2024-02-04T09:30:18;0.70;;;0.60;;
33836;SDS011;20140;49.356;8.812;2024-02-04T09:32:43;0.90;;;0.90;;
33836;SDS011;20140;49.356;8.812;2024-02-04T09:35:09;0.90;;;0.73;;
33836;SDS011;20140;49.356;8.812;2024-02-04T09:37:34;0.85;;;0.70;;
33836;SDS011;20140;49.356;8.812;2024-02-04T09:40:00;0.47;;;0.30;;
33836;SDS011;20140;49.356;8.812;2024-02-04T09:42:26;5.07;;;0.70;;
33836;SDS011;20140;49.356;8.812;2024-02-04T09:44:53;2.50;;;0.80;;
33836;SDS011;20140;49.356;8.812;2024-02-04T09:47:18;0.50;;;0.38;;
33836;SDS011;20140;49.356;8.812;2024-02-04T09:49:45;1.30;;;0.70;;
33836;SDS011;20140;49.356;8.812;2024-02-04T09:52:11;2.30;;;1.20;;
33836;SDS011;20140;49.356;8.812;2024-02-04T09:54:44;0.28;;;0.28;;
33836;SDS011;20140;49.356;8.812;2024-02-04T09:57:21;0.43;;;0.40;;
33836;SDS011;20140;49.356;8.812;2024-02-04T09:59:47;1.53;;;0.50;;
33836;SDS011;20140;49.356;8.812;2024-02-04T10:02:13;0.75;;;0.60;;
33836;SDS011;20140;49.356;8.812;2024-02-04T10:04:39;0.32;;;0.32;;
33836;SDS011;20140;49.356;8.812;2024-02-04T10:07:05;0.80;;;0.80;;
33836;SDS011;20140;49.356;8.812;2024-02-04T10:09:31;1.07;;;0.47;;
33836;SDS011;20140;49.356;8.812;2024-02-04T10:11:57;0.60;;;0.60;;
33836;SDS011;20140;49.356;8.812;2024-02-04T10:14:22;0.73;;;0.50;;
33836;SDS011;20140;49.356;8.812;2024-02-04T10:16:51;0.93;;;0.52;;
33836;SDS011;20140;49.356;8.812;2024-02-04T10:19:18;0.68;;;0.60;;
33836;SDS011;20140;49.356;8.812;2024-02-04T10:21:44;0.77;;;0.60;;
33836;SDS011;20140;49.356;8.812;2024-02-04T10:24:09;0.45;;;0.45;;
33836;SDS011;20140;49.356;8.812;2024-02-04T10:26:35;1.00;;;0.60;;
33836;SDS011;20140;49.356;8.812;2024-02-04T10:29:02;0.73;;;0.73;;
33836;SDS011;20140;49.356;8.812;2024-02-04T10:31:28;0.90;;;0.50;;
33836;SDS011;20140;49.356;8.812;2024-02-04T10:33:54;0.73;;;0.73;;
33836;SDS011;20140;49.356;8.812;2024-02-04T10:36:20;0.20;;;0.20;;
33836;SDS011;20140;49.356;8.812;2024-02-04T10:38:45;1.10;;;0.70;;
33836;SDS011;20140;49.356;8.812;2024-02-04T10:41:13;0.55;;;0.55;;
33836;SDS011;20140;49.356;8.812;2024-02-04T10:43:40;1.48;;;0.52;;
33836;SDS011;20140;49.356;8.812;2024-02-04T10:46:09;0.50;;;0.40;;
33836;SDS011;20140;49.356;8.812;2024-02-04T10:48:36;1.65;;;0.40;;
33836;SDS011;20140;49.356;8.812;2024-02-04T10:51:07;0.70;;;0.30;;
33836;SDS011;20140;49.356;8.812;2024-02-04T10:53:37;0.65;;;0.55;;
33836;SDS011;20140;49.356;8.812;2024-02-04T10:56:05;3.10;;;0.60;;
33836;SDS011;20140;49.356;8.812;2024-02-04T10:58:31;1.60;;;0.70;;
33836;SDS011;20140;49.356;8.812;2024-02-04T11:01:00;0.50;;;0.40;;
33836;SDS011;20140;49.356;8.812;2024-02-04T11:03:25;0.75;;;0.45;;
33836;SDS011;20140;49.356;8.812;2024-02-04T11:05:52;0.80;;;0.80;;
33836;SDS011;20140;49.356;8.812;2024-02-04T11:08:19;0.30;;;0.30;;
33836;SDS011;20140;49.356;8.812;2024-02-04T11:10:46;0.60;;;0.50;;
33836;SDS011;20140;49.356;8.812;2024-02-04T11:13:11;1.00;;;0.40;;
33836;SDS011;20140;49.356;8.812;2024-02-04T11:15:37;0.33;;;0.33;;
33836;SDS011;20140;49.356;8.812;2024-02-04T11:26:47;2.47;;;0.37;;
33836;SDS011;20140;49.356;8.812;2024-02-04T11:29:14;0.65;;;0.30;;
33836;SDS011;20140;49.356;8.812;2024-02-04T11:31:39;0.33;;;0.20;;
33836;SDS011;20140;49.356;8.812;2024-02-04T11:34:05;0.20;;;0.20;;
33836;SDS011;20140;49.356;8.812;2024-02-04T11:36:37;0.30;;;0.15;;
33836;SDS011;20140;49.356;8.812;2024-02-04T11:39:11;0.10;;;0.10;;
33836;SDS011;20140;49.356;8.812;2024-02-04T11:41:44;0.43;;;0.20;;
33836;SDS011;20140;49.356;8.812;2024-02-04T11:44:11;0.15;;;0.10;;
33836;SDS011;20140;49.356;8.812;2024-02-04T11:46:37;0.40;;;0.20;;
33836;SDS011;20140;49.356;8.812;2024-02-04T11:49:03;0.17;;;0.17;;
33836;SDS011;20140;49.356;8.812;2024-02-04T11:51:28;0.20;;;0.20;;
33836;SDS011;20140;49.356;8.812;2024-02-04T11:53:55;0.20;;;0.17;;
33836;SDS011;20140;49.356;8.812;2024-02-04T11:56:21;0.50;;;0.15;;
33836;SDS011;20140;49.356;8.812;2024-02-04T11:58:49;0.20;;;0.20;;
33836;SDS011;20140;49.356;8.812;2024-02-04T12:01:14;0.60;;;0.20;;
33836;SDS011;20140;49.356;8.812;2024-02-04T12:03:40;1.30;;;0.20;;
33836;SDS011;20140;49.356;8.812;2024-02-04T12:06:06;0.47;;;0.33;;
33836;SDS011;20140;49.356;8.812;2024-02-04T12:08:33;0.40;;;0.30;;
33836;SDS011;20140;49.356;8.812;2024-02-04T12:10:59;0.70;;;0.22;;
33836;SDS011;20140;49.356;8.812;2024-02-04T12:13:27;0.43;;;0.20;;
33836;SDS011;20140;49.356;8.812;2024-02-04T12:15:53;0.20;;;0.20;;
33836;SDS011;20140;49.356;8.812;2024-02-04T12:18:19;0.20;;;0.10;;
33836;SDS011;20140;49.356;8.812;2024-02-04T12:20:46;0.30;;;0.20;;
33836;SDS011;20140;49.356;8.812;2024-02-04T12:23:14;0.30;;;0.20;;
33836;SDS011;20140;49.356;8.812;2024-02-04T12:25:40;1.50;;;0.20;;
33836;SDS011;20140;49.356;8.812;2024-02-04T12:28:08;0.70;;;0.30;;
33836;SDS011;20140;49.356;8.812;2024-02-04T12:30:34;1.10;;;0.35;;
33836;SDS011;20140;49.356;8.812;2024-02-04T12:33:03;0.50;;;0.50;;
33836;SDS011;20140;49.356;8.812;2024-02-04T12:35:30;0.75;;;0.75;;
33836;SDS011;20140;49.356;8.812;2024-02-04T12:37:57;0.20;;;0.20;;
33836;SDS011;20140;49.356;8.812;2024-02-04T12:40:27;0.30;;;0.20;;
33836;SDS011;20140;49.356;8.812;2024-02-04T12:42:55;0.10;;;0.10;;
33836;SDS011;20140;49.356;8.812;2024-02-04T12:45:25;2.15;;;0.63;;
33836;SDS011;20140;49.356;8.812;2024-02-04T12:47:51;0.22;;;0.22;;
33836;SDS011;20140;49.356;8.812;2024-02-04T12:50:17;2.92;;;0.90;;
33836;SDS011;20140;49.356;8.812;2024-02-04T12:52:47;0.10;;;0.10;;
33836;SDS011;20140;49.356;8.812;2024-02-04T12:55:21;0.73;;;0.43;;
33836;SDS011;20140;49.356;8.812;2024-02-04T12:57:48;0.95;;;0.20;;
33836;SDS011;20140;49.356;8.812;2024-02-04T13:00:17;0.60;;;0.20;;
33836;SDS011;20140;49.356;8.812;2024-02-04T13:02:43;0.10;;;0.10;;
33836;SDS011;20140;49.356;8.812;2024-02-04T13:05:09;0.57;;;0.45;;
33836;SDS011;20140;49.356;8.812;2024-02-04T13:07:35;0.38;;;0.30;;
33836;SDS011;20140;49.356;8.812;2024-02-04T13:10:01;0.20;;;0.13;;
33836;SDS011;20140;49.356;8.812;2024-02-04T13:12:26;0.70;;;0.40;;
33836;SDS011;20140;49.356;8.812;2024-02-04T13:14:52;0.47;;;0.30;;
33836;SDS011;20140;49.356;8.812;2024-02-04T13:17:18;0.30;;;0.27;;
33836;SDS011;20140;49.356;8.812;2024-02-04T13:19:43;0.10;;;0.10;;
33836;SDS011;20140;49.356;8.812;2024-02-04T13:22:09;0.50;;;0.50;;
33836;SDS011;20140;49.356;8.812;2024-02-04T13:24:35;0.40;;;0.40;;
33836;SDS011;20140;49.356;8.812;2024-02-04T13:27:01;0.13;;;0.10;;
33836;SDS011;20140;49.356;8.812;2024-02-04T13:29:28;0.25;;;0.13;;
33836;SDS011;20140;49.356;8.812;2024-02-04T13:31:54;0.15;;;0.10;;
33836;SDS011;20140;49.356;8.812;2024-02-04T13:34:19;0.40;;;0.40;;
33836;SDS011;20140;49.356;8.812;2024-02-04T13:36:45;0.40;;;0.30;;
33836;SDS011;20140;49.356;8.812;2024-02-04T13:39:11;0.30;;;0.20;;
33836;SDS011;20140;49.356;8.812;2024-02-04T13:41:38;0.20;;;0.13;;
33836;SDS011;20140;49.356;8.812;2024-02-04T13:44:04;0.15;;;0.15;;
33836;SDS011;20140;49.356;8.812;2024-02-04T13:46:29;0.27;;;0.20;;
33836;SDS011;20140;49.356;8.812;2024-02-04T13:48:58;0.30;;;0.20;;
33836;SDS011;20140;49.356;8.812;2024-02-04T13:51:24;0.40;;;0.20;;
33836;SDS011;20140;49.356;8.812;2024-02-04T13:53:49;0.38;;;0.20;;
33836;SDS011;20140;49.356;8.812;2024-02-04T13:56:14;0.28;;;0.28;;
33836;SDS011;20140;49.356;8.812;2024-02-04T13:58:43;0.20;;;0.20;;
33836;SDS011;20140;49.356;8.812;2024-02-04T14:01:09;0.20;;;0.20;;
33836;SDS011;20140;49.356;8.812;2024-02-04T14:03:35;0.10;;;0.10;;
33836;SDS011;20140;49.356;8.812;2024-02-04T14:06:00;0.30;;;0.20;;
33836;SDS011;20140;49.356;8.812;2024-02-04T14:08:28;1.30;;;0.28;;
33836;SDS011;20140;49.356;8.812;2024-02-04T14:10:54;1.70;;;0.20;;
33836;SDS011;20140;49.356;8.812;2024-02-04T14:13:20;0.40;;;0.30;;
33836;SDS011;20140;49.356;8.812;2024-02-04T14:15:45;0.20;;;0.20;;
33836;SDS011;20140;49.356;8.812;2024-02-04T14:18:10;0.53;;;0.30;;
33836;SDS011;20140;49.356;8.812;2024-02-04T14:20:36;0.30;;;0.20;;
33836;SDS011;20140;49.356;8.812;2024-02-04T14:23:01;1.10;;;0.40;;
33836;SDS011;20140;49.356;8.812;2024-02-04T14:25:27;0.80;;;0.32;;
33836;SDS011;20140;49.356;8.812;2024-02-04T14:27:53;0.40;;;0.30;;
33836;SDS011;20140;49.356;8.812;2024-02-04T14:30:19;0.50;;;0.20;;
33836;SDS011;20140;49.356;8.812;2024-02-04T14:32:44;0.30;;;0.20;;
33836;SDS011;20140;49.356;8.812;2024-02-04T14:35:10;0.70;;;0.20;;
33836;SDS011;20140;49.356;8.812;2024-02-04T14:37:36;0.53;;;0.43;;
33836;SDS011;20140;49.356;8.812;2024-02-04T14:40:04;0.45;;;0.40;;
33836;SDS011;20140;49.356;8.812;2024-02-04T14:42:31;0.50;;;0.50;;
33836;SDS011;20140;49.356;8.812;2024-02-04T14:44:57;0.20;;;0.20;;
33836;SDS011;20140;49.356;8.812;2024-02-04T14:47:25;0.68;;;0.52;;
33836;SDS011;20140;49.356;8.812;2024-02-04T14:49:52;0.80;;;0.50;;
33836;SDS011;20140;49.356;8.812;2024-02-04T14:52:18;2.90;;;0.32;;
33836;SDS011;20140;49.356;8.812;2024-02-04T14:54:43;0.65;;;0.57;;